createdAt,value
2022-08-17T00:01:27.581Z,19.45
2022-08-17T00:06:32.831Z,20.40
2022-08-17T00:11:38.606Z,18.23
2022-08-17T00:16:55.544Z,17.23
2022-08-17T00:22:34.759Z,19.63
2022-08-17T00:27:26.480Z,22.48
2022-08-17T00:33:15.648Z,19.13
2022-08-17T00:37:55.226Z,18.02
2022-08-17T00:42:58.550Z,18.20
2022-08-17T00:48:01.861Z,17.63
2022-08-17T00:53:07.116Z,16.40
2022-08-17T00:58:11.630Z,16.48
2022-08-17T01:03:19.645Z,20.48
2022-08-17T01:08:28.271Z,15.85
2022-08-17T01:13:40.766Z,17.58
2022-08-17T01:18:46.938Z,20.20
2022-08-17T01:23:51.769Z,16.63
2022-08-17T01:28:56.164Z,16.05
2022-08-17T01:39:08.160Z,15.25
2022-08-17T01:44:11.606Z,17.35
2022-08-17T01:49:14.901Z,14.40
2022-08-17T01:54:20.830Z,16.13
2022-08-17T01:59:24.398Z,17.83
2022-08-17T02:04:28.069Z,17.30
2022-08-17T02:09:32.903Z,18.63
2022-08-17T02:14:36.588Z,14.90
2022-08-17T02:19:40.575Z,15.70
2022-08-17T02:25:01.252Z,13.80
2022-08-17T02:31:01.045Z,15.10
2022-08-17T02:35:32.430Z,14.15
2022-08-17T02:40:40.622Z,15.00
2022-08-17T02:45:44.302Z,14.90
2022-08-17T02:50:48.202Z,13.88
2022-08-17T02:55:52.937Z,13.00
2022-08-17T03:00:56.737Z,17.45
2022-08-17T03:06:00.582Z,13.48
2022-08-17T03:11:05.612Z,14.77
2022-08-17T03:16:10.016Z,15.75
2022-08-17T03:26:17.738Z,13.38
2022-08-17T03:31:22.814Z,13.27
2022-08-17T03:36:26.197Z,12.70
2022-08-17T03:41:30.991Z,12.53
2022-08-17T03:46:51.896Z,14.20
2022-08-17T03:52:13.856Z,12.52
2022-08-17T03:57:19.427Z,12.48
2022-08-17T04:02:25.514Z,11.75
2022-08-17T04:07:31.085Z,10.07
2022-08-17T04:12:46.948Z,10.90
2022-08-17T04:17:50.483Z,11.60
2022-08-17T04:22:58.555Z,12.10
2022-08-17T04:28:04.018Z,8.13
2022-08-17T04:33:14.152Z,10.60
2022-08-17T04:38:19.941Z,9.70
2022-08-17T04:43:27.211Z,8.35
2022-08-17T04:48:36.391Z,8.75
2022-08-17T04:53:41.499Z,13.25
2022-08-17T04:58:49.742Z,7.57
2022-08-17T05:03:54.835Z,8.63
2022-08-17T05:08:59.418Z,10.40
2022-08-17T05:14:04.865Z,10.82
2022-08-17T05:19:08.483Z,11.88
2022-08-17T05:24:38.348Z,9.75
2022-08-17T05:29:37.698Z,11.48
2022-08-17T05:34:41.005Z,9.00
2022-08-17T05:39:45.176Z,10.90
2022-08-17T05:44:49.982Z,10.73
2022-08-17T05:49:53.799Z,9.02
2022-08-17T05:55:11.727Z,14.00
2022-08-17T06:00:21.847Z,12.00
2022-08-17T06:05:51.624Z,10.50
2022-08-17T06:11:00.584Z,9.10
2022-08-17T06:16:25.971Z,11.27
2022-08-17T06:21:40.769Z,9.55
2022-08-17T06:26:45.802Z,13.05
2022-08-17T06:31:51.191Z,7.85
2022-08-17T06:37:14.986Z,8.98
2022-08-17T06:43:05.026Z,8.43
2022-08-17T06:47:57.025Z,8.13
2022-08-17T06:53:05.892Z,7.95
2022-08-17T06:58:16.336Z,11.98
2022-08-17T07:03:32.382Z,11.20
2022-08-17T07:08:48.376Z,11.15
2022-08-17T07:13:59.191Z,9.88
2022-08-17T07:19:04.409Z,7.78
2022-08-17T07:24:33.242Z,8.73
2022-08-17T07:29:54.894Z,8.95
2022-08-17T07:35:10.836Z,8.23
2022-08-17T07:40:29.692Z,13.82
2022-08-17T07:45:53.563Z,10.80
2022-08-17T07:50:57.365Z,8.73
2022-08-17T07:56:00.775Z,9.90
2022-08-17T08:01:09.208Z,8.95
2022-08-17T08:06:23.136Z,7.65
2022-08-17T08:11:32.387Z,7.35
2022-08-17T08:16:37.698Z,9.48
2022-08-17T08:21:48.922Z,5.00
2022-08-17T08:27:04.393Z,6.78
2022-08-17T08:32:20.307Z,9.02
2022-08-17T08:37:42.507Z,8.82
2022-08-17T08:42:56.542Z,12.63
2022-08-17T08:48:23.145Z,9.85
2022-08-17T08:53:51.680Z,8.43
2022-08-17T08:59:03.549Z,4.70
2022-08-17T09:04:27.296Z,7.75
2022-08-17T09:09:41.582Z,9.43
2022-08-17T09:14:53.082Z,10.00
2022-08-17T09:20:02.757Z,9.32
2022-08-17T09:25:11.696Z,6.35
2022-08-17T09:30:15.878Z,10.90
2022-08-17T09:35:25.220Z,8.45
2022-08-17T09:40:52.776Z,8.18
2022-08-17T09:46:02.643Z,8.88
2022-08-17T09:51:14.856Z,7.53
2022-08-17T09:56:34.694Z,12.00
2022-08-17T10:01:43.574Z,9.90
2022-08-17T10:06:59.232Z,7.63
2022-08-17T10:12:17.792Z,6.18
2022-08-17T10:17:29.418Z,9.05
2022-08-17T10:23:10.758Z,8.18
2022-08-17T10:28:19.882Z,7.80
2022-08-17T10:33:26.079Z,8.15
2022-08-17T10:38:40.042Z,6.60
2022-08-17T10:43:57.829Z,9.35
2022-08-17T10:49:34.811Z,11.55
2022-08-17T10:54:48.400Z,7.07
2022-08-17T10:59:53.987Z,11.98
2022-08-17T11:05:47.909Z,8.57
2022-08-17T11:11:07.687Z,8.38
2022-08-17T11:16:32.744Z,7.78
2022-08-17T11:22:02.987Z,10.98
2022-08-17T11:27:23.643Z,13.05
2022-08-17T11:32:34.147Z,7.57
2022-08-17T11:37:47.901Z,10.68
2022-08-17T11:48:33.950Z,16.00
2022-08-17T11:54:32.837Z,14.05
2022-08-17T11:59:59.020Z,12.63
2022-08-17T12:05:27.592Z,10.57
2022-08-17T12:10:34.424Z,10.15
2022-08-17T12:15:48.846Z,9.27
2022-08-17T12:21:19.430Z,11.80
2022-08-17T12:26:30.443Z,14.18
2022-08-17T12:31:43.448Z,11.07
2022-08-17T12:36:48.338Z,9.18
2022-08-17T12:41:57.358Z,8.93
2022-08-17T12:47:09.917Z,6.97
2022-08-17T12:52:16.955Z,7.93
2022-08-17T12:57:23.954Z,13.43
2022-08-17T13:02:45.511Z,8.30
2022-08-17T13:07:49.618Z,10.65
2022-08-17T13:12:53.690Z,9.10
2022-08-17T13:18:03.988Z,7.68
2022-08-17T13:23:12.445Z,8.18
2022-08-17T13:28:35.722Z,10.73
2022-08-17T13:33:44.959Z,9.57
2022-08-17T13:38:51.077Z,9.07
2022-08-17T13:43:54.508Z,7.25
2022-08-17T13:49:01.894Z,9.13
2022-08-17T13:54:25.751Z,10.18
2022-08-17T13:59:52.568Z,10.30
2022-08-17T14:05:00.638Z,10.32
2022-08-17T14:10:08.526Z,10.77
2022-08-17T14:15:14.178Z,9.23
2022-08-17T14:20:22.853Z,8.85
2022-08-17T14:25:28.898Z,11.20
2022-08-17T14:30:32.662Z,10.82
2022-08-17T14:35:37.570Z,7.75
2022-08-17T14:40:41.148Z,7.30
2022-08-17T14:45:45.023Z,9.95
2022-08-17T14:50:49.799Z,11.73
2022-08-17T14:55:53.233Z,21.33
2022-08-17T15:00:56.891Z,6.72
2022-08-17T15:06:02.849Z,6.95
2022-08-17T15:11:06.679Z,9.02
2022-08-17T15:16:15.179Z,11.60
2022-08-17T15:21:20.588Z,12.32
2022-08-17T15:26:26.358Z,11.98
2022-08-17T15:31:32.118Z,7.50
2022-08-17T15:36:37.574Z,10.95
2022-08-17T15:41:44.949Z,9.80
2022-08-17T15:46:49.897Z,10.30
2022-08-17T15:51:54.927Z,16.38
2022-08-17T15:56:58.341Z,12.73
2022-08-17T16:07:26.946Z,14.25
2022-08-17T16:12:30.483Z,18.30
2022-08-17T16:22:46.998Z,23.73
2022-08-17T16:27:53.728Z,23.33
2022-08-17T16:32:59.945Z,15.25
2022-08-17T16:38:04.906Z,12.30
2022-08-17T16:43:12.203Z,20.92
2022-08-17T16:48:16.573Z,22.10
2022-08-17T16:53:21.787Z,17.75
2022-08-17T16:58:25.205Z,16.00
2022-08-17T17:03:30.875Z,19.38
2022-08-17T17:08:44.370Z,15.05
2022-08-17T17:13:54.867Z,10.35
2022-08-17T17:19:09.658Z,17.25
2022-08-17T17:24:22.988Z,15.15
2022-08-17T17:29:48.084Z,17.35
2022-08-17T17:34:56.212Z,24.52
2022-08-17T17:40:05.226Z,18.33
2022-08-17T17:45:16.099Z,18.42
2022-08-17T17:50:35.888Z,20.30
2022-08-17T17:55:55.260Z,17.50
2022-08-17T18:01:20.315Z,16.65
2022-08-17T18:06:39.925Z,21.45
2022-08-17T18:11:59.220Z,16.80
2022-08-17T18:17:03.313Z,16.27
2022-08-17T18:22:14.182Z,11.90
2022-08-17T18:27:26.661Z,13.35
2022-08-17T18:32:36.149Z,15.55
2022-08-17T18:37:46.325Z,12.18
2022-08-17T18:43:04.252Z,10.30
2022-08-17T18:48:21.149Z,13.23
2022-08-17T18:53:34.752Z,12.35
2022-08-17T18:58:40.933Z,11.82
2022-08-17T19:03:46.561Z,12.10
2022-08-17T19:08:49.975Z,13.93
2022-08-17T19:13:58.391Z,15.90
2022-08-17T19:19:06.467Z,17.05
2022-08-17T19:24:19.475Z,10.85
2022-08-17T19:29:31.176Z,14.53
2022-08-17T19:34:37.004Z,10.05
2022-08-17T19:40:00.865Z,11.52
2022-08-17T19:45:17.030Z,10.43
2022-08-17T19:50:26.645Z,11.10
2022-08-17T19:55:37.992Z,14.75
2022-08-17T20:00:50.520Z,12.45
2022-08-17T20:06:13.879Z,11.52
2022-08-17T20:11:22.150Z,9.40
2022-08-17T20:16:27.317Z,13.80
2022-08-17T20:21:37.254Z,16.35
2022-08-17T20:26:58.114Z,9.55
2022-08-17T20:32:24.117Z,15.25
2022-08-17T20:37:31.236Z,10.75
2022-08-17T20:42:35.594Z,15.20
2022-08-17T20:48:07.401Z,14.05
2022-08-17T20:53:13.546Z,13.63
2022-08-17T20:58:38.444Z,12.73
2022-08-17T21:03:52.290Z,10.43
2022-08-17T21:09:19.723Z,13.35
2022-08-17T21:14:33.012Z,15.63
2022-08-17T21:20:10.239Z,10.25
2022-08-17T21:25:37.236Z,10.85
2022-08-17T21:30:48.899Z,13.35
2022-08-17T21:36:16.428Z,8.35
2022-08-17T21:41:22.321Z,12.90
2022-08-17T21:46:30.575Z,14.93
2022-08-17T21:51:38.834Z,11.07
2022-08-17T21:56:47.257Z,14.48
2022-08-17T22:01:54.110Z,13.45
2022-08-17T22:07:00.587Z,13.07
2022-08-17T22:12:09.235Z,9.43
2022-08-17T22:17:17.858Z,13.38
2022-08-17T22:22:29.355Z,11.10
2022-08-17T22:27:49.133Z,16.30
2022-08-17T22:32:52.778Z,15.93
2022-08-17T22:37:57.653Z,17.88
2022-08-17T22:43:03.556Z,12.05
2022-08-17T22:48:07.512Z,10.23
2022-08-17T22:53:38.132Z,10.00
2022-08-17T22:59:02.845Z,10.88
2022-08-17T23:04:08.789Z,11.98
2022-08-17T23:09:13.615Z,12.23
2022-08-17T23:14:19.319Z,14.15
2022-08-17T23:19:23.283Z,15.82
2022-08-17T23:24:30.292Z,15.43
2022-08-17T23:29:33.701Z,11.63
2022-08-17T23:34:39.068Z,10.87
2022-08-17T23:39:45.145Z,11.27
2022-08-17T23:44:49.433Z,12.15
2022-08-17T23:55:00.271Z,16.38
